createdAt,value
2017-12-28T00:00:01.927Z,86.80
2017-12-28T00:02:29.497Z,87.60
2017-12-28T00:04:57.804Z,86.30
2017-12-28T00:07:26.142Z,86.10
2017-12-28T00:09:53.670Z,86.20
2017-12-28T00:12:21.200Z,86.60
2017-12-28T00:14:49.522Z,86.60
2017-12-28T00:17:17.815Z,86.70
2017-12-28T00:19:45.370Z,86.80
2017-12-28T00:22:12.899Z,86.40
2017-12-28T00:24:41.220Z,86.00
2017-12-28T00:27:09.517Z,86.30
2017-12-28T00:29:37.843Z,85.60
2017-12-28T00:32:06.139Z,86.00
2017-12-28T00:34:34.462Z,86.30
2017-12-28T00:37:01.998Z,86.10
2017-12-28T00:39:29.553Z,86.30
2017-12-28T00:41:57.857Z,86.30
2017-12-28T00:44:26.181Z,86.40
2017-12-28T00:46:54.675Z,86.10
2017-12-28T00:49:22.247Z,86.10
2017-12-28T00:51:49.775Z,85.90
2017-12-28T00:54:18.072Z,87.00
2017-12-28T00:56:46.386Z,85.70
2017-12-28T00:59:13.918Z,85.70
2017-12-28T01:01:42.236Z,85.60
2017-12-28T01:04:10.539Z,85.80
2017-12-28T01:06:38.867Z,85.80
2017-12-28T01:09:07.160Z,85.60
2017-12-28T01:11:34.721Z,85.60
2017-12-28T01:14:02.255Z,86.10
2017-12-28T01:16:30.581Z,86.00
2017-12-28T01:18:58.874Z,86.20
2017-12-28T01:21:26.431Z,86.20
2017-12-28T01:23:53.956Z,86.30
2017-12-28T01:26:22.295Z,86.30
2017-12-28T01:28:49.826Z,86.30
2017-12-28T01:31:18.132Z,85.80
2017-12-28T01:33:45.687Z,85.80
2017-12-28T01:36:13.987Z,86.30
2017-12-28T01:38:41.543Z,86.40
2017-12-28T01:41:09.843Z,86.10
2017-12-28T01:43:38.167Z,86.40
2017-12-28T01:46:06.462Z,86.40
2017-12-28T01:48:34.020Z,86.50
2017-12-28T01:51:02.330Z,86.60
2017-12-28T01:53:30.650Z,86.80
2017-12-28T01:55:58.964Z,86.60
2017-12-28T01:58:27.292Z,86.40
2017-12-28T02:00:54.839Z,86.50
2017-12-28T02:03:23.150Z,86.40
2017-12-28T02:05:51.472Z,86.20
2017-12-28T02:08:19.770Z,86.20
2017-12-28T02:10:47.325Z,86.20
2017-12-28T02:13:14.861Z,86.30
2017-12-28T02:15:43.181Z,86.00
2017-12-28T02:18:10.707Z,86.00
2017-12-28T02:20:39.024Z,85.70
2017-12-28T02:23:07.322Z,85.80
2017-12-28T02:25:35.634Z,86.10
2017-12-28T02:28:03.166Z,86.00
2017-12-28T02:30:31.502Z,85.50
2017-12-28T02:32:59.049Z,85.40
2017-12-28T02:35:27.346Z,86.00
2017-12-28T02:37:54.895Z,86.10
2017-12-28T02:40:22.424Z,85.90
2017-12-28T02:42:50.746Z,86.10
2017-12-28T02:45:19.045Z,86.10
2017-12-28T02:47:47.364Z,86.60
2017-12-28T02:50:14.914Z,86.60
2017-12-28T02:52:43.246Z,86.60
2017-12-28T02:55:11.550Z,86.30
2017-12-28T02:57:39.107Z,86.30
2017-12-28T03:00:07.410Z,86.50
2017-12-28T03:02:35.741Z,86.40
2017-12-28T03:05:04.048Z,86.40
2017-12-28T03:07:32.357Z,86.50
2017-12-28T03:10:00.684Z,86.70
2017-12-28T03:12:28.985Z,86.60
2017-12-28T03:14:57.300Z,86.40
2017-12-28T03:17:25.593Z,85.90
2017-12-28T03:19:53.141Z,85.80
2017-12-28T03:22:20.675Z,85.70
2017-12-28T03:24:48.994Z,85.50
2017-12-28T03:27:17.325Z,85.50
2017-12-28T03:29:45.646Z,85.40
2017-12-28T03:32:13.942Z,85.60
2017-12-28T03:34:42.262Z,85.20
2017-12-28T03:37:10.558Z,85.70
2017-12-28T03:39:38.110Z,85.70
2017-12-28T03:42:06.408Z,85.90
2017-12-28T03:44:34.732Z,85.80
2017-12-28T03:47:03.030Z,85.80
2017-12-28T03:49:31.358Z,85.40
2017-12-28T03:51:58.887Z,85.40
2017-12-28T03:54:27.232Z,85.50
2017-12-28T03:56:55.526Z,85.60
2017-12-28T03:59:23.060Z,86.40
2017-12-28T04:01:50.616Z,85.40
2017-12-28T04:04:18.908Z,85.10
2017-12-28T04:06:47.228Z,85.10
2017-12-28T04:09:15.533Z,85.00
2017-12-28T04:11:43.851Z,85.00
2017-12-28T04:14:11.378Z,85.00
2017-12-28T04:16:39.697Z,84.40
2017-12-28T04:19:08.005Z,84.40
2017-12-28T04:21:35.554Z,84.40
2017-12-28T04:24:03.851Z,84.50
2017-12-28T04:26:32.165Z,85.00
2017-12-28T04:29:00.461Z,85.00
2017-12-28T04:31:28.016Z,85.00
2017-12-28T04:33:55.544Z,85.10
2017-12-28T04:36:23.880Z,85.40
2017-12-28T04:38:52.194Z,85.40
2017-12-28T04:41:19.727Z,85.40
2017-12-28T04:43:47.293Z,85.50
2017-12-28T04:46:15.590Z,85.80
2017-12-28T04:48:43.901Z,85.60
2017-12-28T04:51:11.442Z,85.50
2017-12-28T04:53:39.007Z,85.90
2017-12-28T04:56:07.302Z,86.70
2017-12-28T04:58:35.625Z,86.90
2017-12-28T05:01:03.922Z,87.20
2017-12-28T05:03:32.240Z,87.30
2017-12-28T05:06:00.540Z,87.50
2017-12-28T05:08:28.100Z,87.60
2017-12-28T05:10:56.396Z,87.90
2017-12-28T05:13:23.947Z,87.90
2017-12-28T05:15:52.253Z,88.00
2017-12-28T05:18:19.813Z,88.00
2017-12-28T05:20:47.371Z,88.10
2017-12-28T05:23:15.720Z,88.00
2017-12-28T05:25:44.023Z,88.00
2017-12-28T05:28:11.557Z,88.10
2017-12-28T05:30:39.151Z,88.10
2017-12-28T05:33:06.684Z,88.10
2017-12-28T05:35:35.008Z,88.20
2017-12-28T05:38:03.297Z,88.10
2017-12-28T05:40:30.855Z,88.10
2017-12-28T05:42:59.162Z,88.10
2017-12-28T05:45:27.482Z,88.20
2017-12-28T05:47:55.020Z,88.20
2017-12-28T05:50:22.588Z,88.30
2017-12-28T05:52:50.904Z,88.40
2017-12-28T05:55:19.218Z,88.40
2017-12-28T05:57:46.749Z,88.40
2017-12-28T06:00:14.304Z,88.40
2017-12-28T06:02:41.865Z,88.60
2017-12-28T06:05:10.172Z,89.50
2017-12-28T06:07:38.494Z,88.80
2017-12-28T06:10:06.033Z,88.80
2017-12-28T06:12:34.937Z,88.70
2017-12-28T06:15:03.235Z,88.70
2017-12-28T06:17:30.798Z,88.80
2017-12-28T06:19:59.102Z,88.80
2017-12-28T06:22:26.650Z,88.80
2017-12-28T06:24:54.938Z,88.70
2017-12-28T06:27:23.258Z,88.60
2017-12-28T06:29:50.789Z,88.60
2017-12-28T06:32:19.103Z,88.40
2017-12-28T06:34:47.398Z,89.10
2017-12-28T06:37:15.736Z,88.30
2017-12-28T06:39:43.270Z,88.30
2017-12-28T06:42:10.801Z,88.20
2017-12-28T06:44:39.116Z,88.10
2017-12-28T06:47:06.649Z,88.10
2017-12-28T06:49:34.206Z,88.50
2017-12-28T06:52:02.502Z,88.70
2017-12-28T06:54:30.823Z,88.70
2017-12-28T06:56:59.114Z,88.40
2017-12-28T06:59:26.678Z,88.50
2017-12-28T07:01:55.012Z,88.80
2017-12-28T07:04:23.330Z,88.30
2017-12-28T07:06:51.627Z,88.00
2017-12-28T07:09:19.181Z,88.00
2017-12-28T07:11:47.474Z,88.00
2017-12-28T07:14:15.043Z,88.00
2017-12-28T07:16:43.352Z,87.60
2017-12-28T07:19:10.919Z,87.60
2017-12-28T07:21:38.462Z,87.60
2017-12-28T07:24:06.020Z,87.60
2017-12-28T07:26:34.314Z,87.90
2017-12-28T07:29:01.851Z,87.80
2017-12-28T07:31:29.400Z,88.00
2017-12-28T07:33:56.934Z,87.80
2017-12-28T07:36:25.259Z,87.90
2017-12-28T07:38:53.578Z,87.80
2017-12-28T07:41:21.176Z,87.80
2017-12-28T07:43:49.455Z,87.70
2017-12-28T07:46:17.775Z,87.70
2017-12-28T07:48:46.067Z,87.80
2017-12-28T07:51:13.621Z,87.70
2017-12-28T07:53:41.929Z,88.00
2017-12-28T07:56:10.248Z,87.90
2017-12-28T07:58:38.544Z,87.70
2017-12-28T08:01:06.095Z,87.70
2017-12-28T08:03:34.392Z,88.00
2017-12-28T08:06:02.712Z,88.10
2017-12-28T08:08:31.015Z,87.50
2017-12-28T08:10:59.334Z,87.50
2017-12-28T08:13:26.862Z,87.50
2017-12-28T08:15:55.178Z,87.20
2017-12-28T08:18:23.478Z,87.50
2017-12-28T08:20:51.794Z,87.40
2017-12-28T08:23:20.098Z,87.40
2017-12-28T08:25:48.423Z,87.40
2017-12-28T08:28:16.720Z,87.20
2017-12-28T08:30:44.273Z,87.20
2017-12-28T08:33:12.566Z,87.20
2017-12-28T08:35:40.887Z,87.10
2017-12-28T08:38:09.191Z,87.10
2017-12-28T08:40:36.743Z,87.10
2017-12-28T08:43:05.042Z,86.50
2017-12-28T08:45:33.354Z,86.00
2017-12-28T08:48:01.655Z,85.80
2017-12-28T08:50:30.028Z,85.70
2017-12-28T08:52:58.369Z,85.90
2017-12-28T08:55:26.677Z,85.60
2017-12-28T08:57:55.012Z,85.30
2017-12-28T09:00:23.310Z,84.90
2017-12-28T09:02:50.871Z,84.90
2017-12-28T09:05:19.174Z,83.70
2017-12-28T09:07:47.500Z,83.70
2017-12-28T09:10:15.798Z,84.00
2017-12-28T09:12:44.130Z,83.70
2017-12-28T09:15:12.437Z,83.20
2017-12-28T09:17:40.755Z,82.70
2017-12-28T09:20:08.295Z,82.70
2017-12-28T09:22:36.646Z,82.40
2017-12-28T09:25:04.947Z,81.90
2017-12-28T09:27:32.499Z,81.80
2017-12-28T09:30:00.039Z,81.60
2017-12-28T09:32:28.383Z,81.00
2017-12-28T09:34:56.689Z,81.10
2017-12-28T09:37:25.026Z,80.30
2017-12-28T09:39:54.253Z,80.10
2017-12-28T09:42:21.798Z,80.00
2017-12-28T09:44:50.090Z,79.70
2017-12-28T09:47:18.405Z,79.70
2017-12-28T09:49:46.698Z,77.10
2017-12-28T09:52:15.014Z,77.40
2017-12-28T09:54:43.314Z,78.10
2017-12-28T09:57:11.637Z,78.30
2017-12-28T09:59:39.931Z,78.30
2017-12-28T10:02:08.250Z,75.40
2017-12-28T10:04:36.552Z,75.70
2017-12-28T10:07:04.874Z,75.80
2017-12-28T10:09:33.176Z,75.30
2017-12-28T10:12:01.492Z,74.70
2017-12-28T10:14:29.022Z,74.70
2017-12-28T10:16:57.338Z,74.00
2017-12-28T10:19:25.635Z,74.40
2017-12-28T10:21:53.962Z,75.00
2017-12-28T10:24:22.263Z,74.00
2017-12-28T10:26:50.589Z,74.00
2017-12-28T10:29:18.123Z,74.10
2017-12-28T10:31:45.655Z,74.50
2017-12-28T10:34:13.975Z,75.30
2017-12-28T10:36:42.281Z,75.10
2017-12-28T10:39:09.835Z,75.20
2017-12-28T10:41:37.367Z,75.50
2017-12-28T10:44:05.691Z,74.00
2017-12-28T10:46:33.985Z,74.20
2017-12-28T10:49:02.307Z,73.00
2017-12-28T10:51:30.604Z,72.10
2017-12-28T10:53:58.165Z,72.10
2017-12-28T10:56:26.476Z,72.10
2017-12-28T10:58:54.033Z,72.20
2017-12-28T11:01:21.568Z,71.70
2017-12-28T11:03:49.887Z,70.90
2017-12-28T11:06:18.186Z,70.20
2017-12-28T11:08:46.571Z,70.30
2017-12-28T11:11:14.896Z,69.80
2017-12-28T11:13:43.220Z,70.50
2017-12-28T11:16:11.538Z,71.30
2017-12-28T11:18:39.867Z,71.60
2017-12-28T11:21:08.171Z,71.50
2017-12-28T11:23:36.497Z,71.40
2017-12-28T11:26:04.795Z,71.70
2017-12-28T11:28:33.114Z,71.30
2017-12-28T11:31:01.410Z,71.00
2017-12-28T11:33:29.726Z,71.20
2017-12-28T11:35:58.026Z,70.90
2017-12-28T11:38:26.337Z,68.90
2017-12-28T11:40:54.640Z,68.50
2017-12-28T11:43:22.956Z,68.20
2017-12-28T11:45:51.242Z,66.40
2017-12-28T11:48:20.063Z,66.00
2017-12-28T11:50:48.365Z,61.90
2017-12-28T11:53:22.366Z,63.30
2017-12-28T11:56:05.566Z,63.20
2017-12-28T11:58:48.770Z,63.80
2017-12-28T12:01:18.977Z,64.20
2017-12-28T12:03:49.402Z,64.20
2017-12-28T12:06:23.369Z,64.10
2017-12-28T12:08:57.482Z,64.30
2017-12-28T12:11:25.778Z,63.70
2017-12-28T12:13:54.103Z,64.20
2017-12-28T12:16:22.406Z,64.00
2017-12-28T12:18:50.724Z,63.50
2017-12-28T12:21:18.250Z,63.40
2017-12-28T12:23:46.574Z,63.90
2017-12-28T12:26:14.874Z,63.20
2017-12-28T12:28:43.195Z,62.80
2017-12-28T12:31:11.493Z,62.60
2017-12-28T12:33:39.813Z,62.90
2017-12-28T12:36:08.118Z,61.60
2017-12-28T12:38:36.443Z,61.40
2017-12-28T12:41:04.730Z,61.40
2017-12-28T12:43:33.044Z,62.10
2017-12-28T12:46:01.370Z,63.00
2017-12-28T12:48:29.665Z,63.70
2017-12-28T12:50:57.220Z,63.70
2017-12-28T12:53:25.542Z,65.00
2017-12-28T12:55:53.868Z,65.40
2017-12-28T12:58:22.168Z,65.40
2017-12-28T13:00:49.723Z,65.40
2017-12-28T13:03:18.035Z,66.00
2017-12-28T13:05:46.364Z,67.00
2017-12-28T13:08:13.890Z,66.20
2017-12-28T13:10:41.446Z,66.50
2017-12-28T13:13:09.747Z,67.50
2017-12-28T13:15:38.071Z,67.80
2017-12-28T13:18:06.371Z,68.20
2017-12-28T13:20:34.692Z,68.20
2017-12-28T13:23:02.996Z,67.70
2017-12-28T13:25:31.318Z,67.00
2017-12-28T13:27:59.615Z,66.50
2017-12-28T13:30:27.182Z,66.50
2017-12-28T13:32:55.493Z,65.30
2017-12-28T13:35:23.811Z,63.90
2017-12-28T13:37:52.116Z,63.80
2017-12-28T13:40:20.438Z,63.00
2017-12-28T13:42:48.740Z,63.20
2017-12-28T13:45:17.063Z,63.80
2017-12-28T13:47:45.362Z,64.50
2017-12-28T13:50:13.688Z,64.90
2017-12-28T13:52:41.983Z,65.20
2017-12-28T13:55:10.291Z,65.20
2017-12-28T13:57:37.836Z,65.10
2017-12-28T14:00:06.172Z,65.80
2017-12-28T14:02:34.461Z,66.20
2017-12-28T14:05:02.780Z,67.00
2017-12-28T14:07:31.079Z,66.90
2017-12-28T14:09:59.399Z,67.00
2017-12-28T14:12:26.952Z,67.00
2017-12-28T14:14:55.285Z,68.30
2017-12-28T14:17:23.579Z,68.40
2017-12-28T14:19:51.882Z,69.10
2017-12-28T14:22:20.214Z,69.70
2017-12-28T14:24:48.507Z,70.90
2017-12-28T14:27:16.835Z,72.20
2017-12-28T14:29:45.135Z,72.70
2017-12-28T14:32:13.463Z,73.30
2017-12-28T14:34:41.766Z,73.70
2017-12-28T14:37:10.083Z,74.40
2017-12-28T14:39:37.617Z,74.30
2017-12-28T14:42:05.947Z,75.00
2017-12-28T14:44:34.245Z,75.10
2017-12-28T14:47:02.570Z,75.30
2017-12-28T14:49:30.872Z,75.30
2017-12-28T14:51:58.422Z,75.20
2017-12-28T14:54:26.713Z,75.70
2017-12-28T14:56:55.033Z,76.20
2017-12-28T14:59:23.334Z,76.60
2017-12-28T15:01:51.656Z,76.90
2017-12-28T15:04:19.962Z,77.20
2017-12-28T15:06:48.292Z,77.20
2017-12-28T15:09:16.596Z,77.50
2017-12-28T15:11:44.910Z,77.60
2017-12-28T15:14:12.437Z,77.60
2017-12-28T15:16:40.762Z,77.80
2017-12-28T15:19:08.307Z,77.80
2017-12-28T15:21:36.636Z,78.50
2017-12-28T15:24:04.935Z,78.50
2017-12-28T15:26:33.254Z,78.70
2017-12-28T15:29:01.547Z,78.90
2017-12-28T15:31:29.875Z,79.00
2017-12-28T15:33:57.423Z,79.00
2017-12-28T15:36:25.752Z,79.10
2017-12-28T15:38:54.064Z,79.20
2017-12-28T15:41:22.410Z,79.20
2017-12-28T15:43:50.713Z,79.30
2017-12-28T15:46:19.043Z,79.20
2017-12-28T15:48:47.350Z,79.30
2017-12-28T15:51:15.698Z,79.40
2017-12-28T15:53:43.239Z,79.40
2017-12-28T15:56:11.541Z,79.50
2017-12-28T15:58:39.919Z,79.70
2017-12-28T16:01:08.231Z,79.90
2017-12-28T16:03:35.818Z,79.90
2017-12-28T16:06:04.137Z,80.60
2017-12-28T16:08:31.724Z,80.50
2017-12-28T16:11:00.049Z,81.20
2017-12-28T16:13:28.517Z,81.40
2017-12-28T16:15:56.819Z,81.70
2017-12-28T16:18:25.145Z,81.70
2017-12-28T16:20:53.478Z,82.00
2017-12-28T16:23:21.086Z,82.10
2017-12-28T16:25:49.457Z,82.30
2017-12-28T16:28:17.011Z,82.30
2017-12-28T16:30:45.308Z,82.40
2017-12-28T16:33:13.635Z,82.60
2017-12-28T16:35:41.956Z,82.60
2017-12-28T16:38:10.281Z,82.70
2017-12-28T16:40:38.591Z,82.70
2017-12-28T16:43:06.916Z,82.70
2017-12-28T16:45:35.223Z,82.80
2017-12-28T16:48:03.551Z,82.90
2017-12-28T16:50:31.863Z,82.90
2017-12-28T16:53:00.183Z,82.90
2017-12-28T16:55:28.483Z,83.00
2017-12-28T16:57:56.044Z,83.00
2017-12-28T17:00:24.389Z,82.90
2017-12-28T17:02:52.722Z,82.90
2017-12-28T17:05:21.019Z,82.80
2017-12-28T17:07:48.570Z,82.80
2017-12-28T17:10:16.106Z,82.70
2017-12-28T17:12:44.426Z,82.60
2017-12-28T17:15:12.730Z,82.60
2017-12-28T17:17:41.052Z,82.70
2017-12-28T17:20:09.366Z,82.90
2017-12-28T17:22:36.927Z,82.80
2017-12-28T17:25:05.223Z,82.80
2017-12-28T17:27:32.795Z,82.80
2017-12-28T17:30:01.104Z,82.90
2017-12-28T17:32:29.402Z,82.80
2017-12-28T17:34:57.730Z,82.60
2017-12-28T17:37:26.029Z,82.40
2017-12-28T17:39:54.371Z,82.30
2017-12-28T17:42:22.662Z,82.40
2017-12-28T17:44:50.986Z,82.50
2017-12-28T17:47:19.286Z,82.50
2017-12-28T17:49:48.466Z,82.40
2017-12-28T17:52:16.777Z,82.30
2017-12-28T17:54:45.109Z,82.30
2017-12-28T17:57:13.410Z,82.50
2017-12-28T17:59:41.741Z,82.80
2017-12-28T18:02:10.050Z,83.20
2017-12-28T18:04:38.385Z,83.50
2017-12-28T18:07:06.692Z,83.50
2017-12-28T18:09:34.256Z,83.50
2017-12-28T18:12:01.799Z,83.80
2017-12-28T18:14:30.129Z,83.70
2017-12-28T18:16:58.450Z,83.70
2017-12-28T18:19:26.778Z,83.70
2017-12-28T18:21:55.085Z,83.50
2017-12-28T18:24:22.657Z,83.50
2017-12-28T18:26:50.956Z,83.40
2017-12-28T18:29:19.301Z,83.40
2017-12-28T18:31:47.619Z,83.30
2017-12-28T18:34:15.951Z,83.30
2017-12-28T18:36:44.259Z,83.40
2017-12-28T18:39:12.617Z,83.30
2017-12-28T18:41:40.920Z,83.20
2017-12-28T18:44:08.476Z,83.20
2017-12-28T18:46:36.778Z,83.10
2017-12-28T18:49:04.351Z,83.10
2017-12-28T18:51:32.667Z,83.10
2017-12-28T18:54:00.229Z,83.10
2017-12-28T18:56:28.541Z,83.20
2017-12-28T18:58:56.878Z,83.40
2017-12-28T19:01:24.451Z,83.30
2017-12-28T19:03:51.986Z,83.20
2017-12-28T19:06:20.308Z,83.10
2017-12-28T19:08:48.607Z,83.10
2017-12-28T19:11:16.172Z,83.10
2017-12-28T19:13:44.476Z,83.00
2017-12-28T19:16:12.822Z,83.00
2017-12-28T19:18:41.134Z,82.90
2017-12-28T19:21:09.467Z,82.80
2017-12-28T19:23:37.779Z,82.90
2017-12-28T19:26:06.100Z,82.90
2017-12-28T19:28:34.408Z,82.80
2017-12-28T19:31:02.734Z,82.80
2017-12-28T19:33:31.046Z,82.60
2017-12-28T19:35:59.391Z,82.60
2017-12-28T19:38:28.683Z,82.40
2017-12-28T19:40:57.020Z,82.50
2017-12-28T19:43:24.563Z,82.50
2017-12-28T19:45:52.902Z,82.30
2017-12-28T19:48:20.447Z,83.10
2017-12-28T19:50:48.786Z,82.10
2017-12-28T19:53:17.095Z,82.10
2017-12-28T19:55:45.439Z,82.00
2017-12-28T19:58:12.986Z,82.00
2017-12-28T20:00:41.319Z,83.40
2017-12-28T20:03:09.628Z,82.60
2017-12-28T20:05:37.954Z,82.50
2017-12-28T20:08:06.261Z,82.70
2017-12-28T20:10:33.820Z,82.70
2017-12-28T20:13:02.138Z,82.60
2017-12-28T20:15:30.474Z,82.60
2017-12-28T20:17:58.783Z,82.70
2017-12-28T20:20:27.118Z,82.70
2017-12-28T20:22:55.426Z,82.80
2017-12-28T20:25:23.746Z,82.60
2017-12-28T20:27:52.061Z,82.70
2017-12-28T20:30:20.399Z,82.90
2017-12-28T20:32:48.709Z,82.80
2017-12-28T20:35:17.034Z,82.70
2017-12-28T20:37:45.340Z,82.90
2017-12-28T20:40:13.671Z,82.90
2017-12-28T20:42:41.987Z,82.80
2017-12-28T20:45:10.305Z,82.40
2017-12-28T20:47:38.635Z,82.20
2017-12-28T20:50:06.934Z,82.30
2017-12-28T20:52:35.252Z,82.30
2017-12-28T20:55:03.558Z,82.50
2017-12-28T20:57:31.884Z,82.60
2017-12-28T20:59:59.426Z,82.60
2017-12-28T21:02:27.746Z,82.60
2017-12-28T21:04:56.058Z,82.70
2017-12-28T21:07:23.628Z,82.70
2017-12-28T21:09:51.932Z,82.70
2017-12-28T21:12:19.491Z,82.70
2017-12-28T21:14:47.802Z,83.10
2017-12-28T21:17:16.131Z,83.30
2017-12-28T21:19:44.447Z,83.30
2017-12-28T21:22:12.775Z,83.40
2017-12-28T21:24:41.078Z,83.40
2017-12-28T21:27:09.402Z,83.50
2017-12-28T21:29:37.702Z,83.50
2017-12-28T21:32:05.259Z,83.50
2017-12-28T21:34:34.135Z,83.50
2017-12-28T21:37:02.463Z,83.60
2017-12-28T21:39:29.992Z,83.60
2017-12-28T21:41:58.315Z,83.60
2017-12-28T21:44:25.850Z,83.60
2017-12-28T21:46:54.171Z,83.70
2017-12-28T21:49:22.478Z,83.80
2017-12-28T21:51:50.811Z,83.80
2017-12-28T21:54:18.343Z,83.80
2017-12-28T21:56:46.662Z,84.00
2017-12-28T21:59:14.968Z,84.10
2017-12-28T22:01:43.293Z,84.20
2017-12-28T22:04:10.824Z,84.10
2017-12-28T22:06:39.146Z,84.00
2017-12-28T22:09:06.687Z,84.00
2017-12-28T22:11:35.001Z,83.90
2017-12-28T22:14:03.301Z,83.80
2017-12-28T22:16:31.600Z,83.50
2017-12-28T22:18:59.916Z,83.60
2017-12-28T22:21:27.455Z,83.50
2017-12-28T22:23:55.774Z,83.80
2017-12-28T22:26:24.070Z,83.80
2017-12-28T22:28:52.393Z,83.60
2017-12-28T22:31:20.695Z,83.70
2017-12-28T22:33:48.252Z,83.70
2017-12-28T22:36:16.552Z,83.80
2017-12-28T22:38:44.870Z,83.90
2017-12-28T22:41:13.171Z,84.00
2017-12-28T22:43:41.457Z,84.00
2017-12-28T22:46:09.777Z,83.80
2017-12-28T22:48:37.306Z,83.80
2017-12-28T22:51:05.624Z,83.50
2017-12-28T22:53:33.922Z,83.30
2017-12-28T22:56:02.255Z,83.30
2017-12-28T22:58:30.550Z,83.20
2017-12-28T23:00:58.871Z,83.00
2017-12-28T23:03:27.170Z,82.80
2017-12-28T23:05:55.493Z,83.10
2017-12-28T23:08:23.795Z,83.20
2017-12-28T23:10:52.104Z,83.30
2017-12-28T23:13:20.419Z,83.30
2017-12-28T23:15:48.714Z,83.40
2017-12-28T23:18:17.037Z,83.50
2017-12-28T23:20:45.059Z,83.50
2017-12-28T23:23:13.378Z,83.90
2017-12-28T23:25:41.678Z,83.90
2017-12-28T23:28:09.242Z,84.00
2017-12-28T23:30:37.538Z,84.00
2017-12-28T23:33:05.106Z,84.00
2017-12-28T23:35:33.413Z,84.10
2017-12-28T23:38:01.717Z,84.10
2017-12-28T23:40:30.041Z,84.00
2017-12-28T23:42:58.342Z,84.10
2017-12-28T23:45:26.658Z,84.10
2017-12-28T23:47:54.962Z,84.20
2017-12-28T23:50:22.522Z,84.20
2017-12-28T23:52:50.822Z,84.30
2017-12-28T23:55:19.142Z,84.30
2017-12-28T23:57:46.676Z,84.20
